createdAt,value
2022-11-10T00:02:23.153Z,2.90
2022-11-10T00:05:10.395Z,2.63
2022-11-10T00:07:56.869Z,2.50
2022-11-10T00:11:01.782Z,3.33
2022-11-10T00:14:07.274Z,2.97
2022-11-10T00:17:04.500Z,2.33
2022-11-10T00:19:51.601Z,3.47
2022-11-10T00:22:39.618Z,2.97
2022-11-10T00:25:27.336Z,2.83
2022-11-10T00:28:15.224Z,2.90
2022-11-10T00:31:06.845Z,2.47
2022-11-10T00:33:53.475Z,2.60
2022-11-10T00:36:40.447Z,3.37
2022-11-10T00:39:27.325Z,2.97
2022-11-10T00:42:14.179Z,3.23
2022-11-10T00:45:02.051Z,2.60
2022-11-10T00:47:48.678Z,2.87
2022-11-10T00:50:35.218Z,2.90
2022-11-10T00:53:21.937Z,2.43
2022-11-10T00:56:08.950Z,2.90
2022-11-10T00:58:55.750Z,3.47
2022-11-10T01:01:43.671Z,2.87
2022-11-10T01:04:30.063Z,3.07
2022-11-10T01:07:16.707Z,3.50
2022-11-10T01:10:03.503Z,3.27
2022-11-10T01:12:50.192Z,3.00
2022-11-10T01:15:40.243Z,3.07
2022-11-10T01:18:28.423Z,2.67
2022-11-10T01:21:15.089Z,2.90
2022-11-10T01:24:01.812Z,3.00
2022-11-10T01:26:48.418Z,3.57
2022-11-10T01:29:34.959Z,3.20
2022-11-10T01:32:22.062Z,3.57
2022-11-10T01:35:10.870Z,3.40
2022-11-10T01:37:57.576Z,3.50
2022-11-10T01:40:44.595Z,2.43
2022-11-10T01:43:32.048Z,2.43
2022-11-10T01:46:18.774Z,3.00
2022-11-10T01:49:05.999Z,3.10
2022-11-10T01:51:58.790Z,2.57
2022-11-10T01:54:49.239Z,3.50
2022-11-10T01:57:36.892Z,2.93
2022-11-10T02:00:24.103Z,2.90
2022-11-10T02:03:14.430Z,3.20
2022-11-10T02:06:01.560Z,3.17
2022-11-10T02:08:50.958Z,3.27
2022-11-10T02:11:38.814Z,3.60
2022-11-10T02:14:25.376Z,2.70
2022-11-10T02:17:13.433Z,3.17
2022-11-10T02:20:02.172Z,3.67
2022-11-10T02:22:50.965Z,3.03
2022-11-10T02:25:38.080Z,3.43
2022-11-10T02:28:25.727Z,3.63
2022-11-10T02:31:12.864Z,3.93
2022-11-10T02:33:59.614Z,3.50
2022-11-10T02:36:46.032Z,3.73
2022-11-10T02:39:34.217Z,3.03
2022-11-10T02:42:21.133Z,5.03
2022-11-10T02:45:08.792Z,3.23
2022-11-10T02:47:55.346Z,3.90
2022-11-10T02:50:42.648Z,3.60
2022-11-10T02:53:29.255Z,4.50
2022-11-10T02:56:17.282Z,3.60
2022-11-10T02:59:04.890Z,4.27
2022-11-10T03:01:51.687Z,3.73
2022-11-10T03:04:38.422Z,4.70
2022-11-10T03:07:25.047Z,4.47
2022-11-10T03:10:11.638Z,3.93
2022-11-10T03:13:01.510Z,4.07
2022-11-10T03:15:48.670Z,5.17
2022-11-10T03:18:35.403Z,4.37
2022-11-10T03:21:21.929Z,4.37
2022-11-10T03:24:08.641Z,5.10
2022-11-10T03:26:55.264Z,6.27
2022-11-10T03:29:43.317Z,5.90
2022-11-10T03:32:30.123Z,6.10
2022-11-10T03:35:16.778Z,5.70
2022-11-10T03:38:03.346Z,6.20
2022-11-10T03:41:17.492Z,5.80
2022-11-10T03:43:58.241Z,5.83
2022-11-10T03:46:50.337Z,5.80
2022-11-10T03:49:37.977Z,6.00
2022-11-10T03:52:24.735Z,5.83
2022-11-10T03:55:12.008Z,6.03
2022-11-10T03:58:02.661Z,5.90
2022-11-10T04:00:49.090Z,5.63
2022-11-10T04:03:37.616Z,6.10
2022-11-10T04:06:42.312Z,5.63
2022-11-10T04:09:28.977Z,5.77
2022-11-10T04:12:32.930Z,5.43
2022-11-10T04:15:37.261Z,4.83
2022-11-10T04:18:25.601Z,4.60
2022-11-10T04:21:13.699Z,5.00
2022-11-10T04:24:00.201Z,4.57
2022-11-10T04:26:48.519Z,4.50
2022-11-10T04:29:35.661Z,3.93
2022-11-10T04:32:22.363Z,5.47
2022-11-10T04:35:09.655Z,5.00
2022-11-10T04:37:57.749Z,5.10
2022-11-10T04:40:44.570Z,5.17
2022-11-10T04:43:31.503Z,4.90
2022-11-10T04:46:23.668Z,4.77
2022-11-10T04:49:11.398Z,5.93
2022-11-10T04:51:58.579Z,5.80
2022-11-10T04:54:46.781Z,6.57
2022-11-10T04:57:33.310Z,5.93
2022-11-10T05:00:20.465Z,6.00
2022-11-10T05:03:08.512Z,6.03
2022-11-10T05:05:55.128Z,6.43
2022-11-10T05:08:43.178Z,6.30
2022-11-10T05:11:31.408Z,6.70
2022-11-10T05:14:18.009Z,6.80
2022-11-10T05:17:05.074Z,5.40
2022-11-10T05:19:51.886Z,6.33
2022-11-10T05:22:38.554Z,5.07
2022-11-10T05:25:25.158Z,5.93
2022-11-10T05:28:14.044Z,5.43
2022-11-10T05:31:01.083Z,5.67
2022-11-10T05:33:47.986Z,4.83
2022-11-10T05:36:34.846Z,4.87
2022-11-10T05:39:21.593Z,4.53
2022-11-10T05:42:08.224Z,4.50
2022-11-10T05:44:56.371Z,4.00
2022-11-10T05:47:43.314Z,4.03
2022-11-10T05:50:30.313Z,4.60
2022-11-10T05:53:16.964Z,4.20
2022-11-10T05:56:03.435Z,3.67
2022-11-10T05:58:50.349Z,4.77
2022-11-10T06:01:38.136Z,3.90
2022-11-10T06:04:25.246Z,4.17
2022-11-10T06:07:12.142Z,3.73
2022-11-10T06:09:58.470Z,4.47
2022-11-10T06:12:46.640Z,6.37
2022-11-10T06:15:33.581Z,6.90
2022-11-10T06:18:21.526Z,7.00
2022-11-10T06:21:08.474Z,9.25
2022-11-10T06:23:55.181Z,7.95
2022-11-10T06:26:41.679Z,5.33
2022-11-10T06:29:28.418Z,3.53
2022-11-10T06:32:15.153Z,3.83
2022-11-10T06:35:03.006Z,3.80
2022-11-10T06:37:58.493Z,4.40
2022-11-10T06:40:44.819Z,4.33
2022-11-10T06:43:31.472Z,4.53
2022-11-10T06:46:19.241Z,4.70
2022-11-10T06:49:05.988Z,4.10
2022-11-10T06:51:54.524Z,3.77
2022-11-10T06:54:40.828Z,5.00
2022-11-10T06:57:27.958Z,4.93
2022-11-10T07:00:15.988Z,4.93
2022-11-10T07:03:03.967Z,4.00
2022-11-10T07:05:50.515Z,6.07
2022-11-10T07:08:38.529Z,6.30
2022-11-10T07:11:25.191Z,5.37
2022-11-10T07:14:12.151Z,6.17
2022-11-10T07:16:58.860Z,5.47
2022-11-10T07:19:45.660Z,5.97
2022-11-10T07:22:32.577Z,5.63
2022-11-10T07:25:20.602Z,5.93
2022-11-10T07:28:08.558Z,6.07
2022-11-10T07:30:55.647Z,5.77
2022-11-10T07:33:43.999Z,5.13
2022-11-10T07:36:30.869Z,5.20
2022-11-10T07:39:17.676Z,5.47
2022-11-10T07:42:05.764Z,5.13
2022-11-10T07:44:52.344Z,4.80
2022-11-10T07:47:39.150Z,5.63
2022-11-10T07:50:25.832Z,5.07
2022-11-10T07:53:14.340Z,3.70
2022-11-10T07:56:01.024Z,4.07
2022-11-10T07:58:49.720Z,4.13
2022-11-10T08:01:36.556Z,4.20
2022-11-10T08:04:23.154Z,3.43
2022-11-10T08:07:09.799Z,4.33
2022-11-10T08:09:56.463Z,4.57
2022-11-10T08:12:43.103Z,4.33
2022-11-10T08:15:32.373Z,3.63
2022-11-10T08:18:20.634Z,4.17
2022-11-10T08:21:07.701Z,4.30
2022-11-10T08:23:54.270Z,3.57
2022-11-10T08:26:40.894Z,4.23
2022-11-10T08:29:27.820Z,4.07
2022-11-10T08:32:17.946Z,3.27
2022-11-10T08:35:05.287Z,4.60
2022-11-10T08:37:51.757Z,4.07
2022-11-10T08:40:38.891Z,4.20
2022-11-10T08:43:25.816Z,4.20
2022-11-10T08:46:12.563Z,3.77
2022-11-10T08:49:01.243Z,3.80
2022-11-10T08:51:48.147Z,3.77
2022-11-10T08:54:34.949Z,3.97
2022-11-10T08:57:21.813Z,4.70
2022-11-10T09:00:09.942Z,3.90
2022-11-10T09:02:56.624Z,4.00
2022-11-10T09:05:44.801Z,3.67
2022-11-10T09:08:33.829Z,3.83
2022-11-10T09:11:20.575Z,3.30
2022-11-10T09:14:07.197Z,3.77
2022-11-10T09:16:53.752Z,4.03
2022-11-10T09:19:40.529Z,3.40
2022-11-10T09:22:28.537Z,3.67
2022-11-10T09:25:15.424Z,3.90
2022-11-10T09:28:02.454Z,3.17
2022-11-10T09:30:50.817Z,2.83
2022-11-10T09:33:37.336Z,4.47
2022-11-10T09:36:23.966Z,3.80
2022-11-10T09:39:12.170Z,2.60
2022-11-10T09:41:59.073Z,3.50
2022-11-10T09:44:52.437Z,3.33
2022-11-10T09:48:01.924Z,3.67
2022-11-10T09:50:52.786Z,3.90
2022-11-10T09:53:45.636Z,2.97
2022-11-10T09:56:35.525Z,3.03
2022-11-10T09:59:27.517Z,3.50
2022-11-10T10:02:24.748Z,3.93
2022-11-10T10:05:38.716Z,3.47
2022-11-10T10:08:34.662Z,3.87
2022-11-10T10:11:34.776Z,3.53
2022-11-10T10:14:57.553Z,2.60
2022-11-10T10:17:54.047Z,3.77
2022-11-10T10:20:51.872Z,3.10
2022-11-10T10:24:08.328Z,2.70
2022-11-10T10:26:54.724Z,3.00
2022-11-10T10:29:46.221Z,3.30
2022-11-10T10:32:33.344Z,3.30
2022-11-10T10:35:20.344Z,3.73
2022-11-10T10:38:17.489Z,3.07
2022-11-10T10:41:16.252Z,3.73
2022-11-10T10:44:12.979Z,3.33
2022-11-10T10:47:02.955Z,2.90
2022-11-10T10:49:49.828Z,2.97
2022-11-10T10:52:36.670Z,3.23
2022-11-10T10:55:30.222Z,3.30
2022-11-10T10:58:26.191Z,3.07
2022-11-10T11:01:26.392Z,3.13
2022-11-10T11:04:30.772Z,3.23
2022-11-10T11:07:22.708Z,3.87
2022-11-10T11:10:20.894Z,2.83
2022-11-10T11:13:22.966Z,3.17
2022-11-10T11:16:12.358Z,3.23
2022-11-10T11:18:59.723Z,2.93
2022-11-10T11:22:06.819Z,2.67
2022-11-10T11:25:03.805Z,3.47
2022-11-10T11:28:00.013Z,4.10
2022-11-10T11:30:59.101Z,4.13
2022-11-10T11:33:50.835Z,3.00
2022-11-10T11:36:48.701Z,3.23
2022-11-10T11:39:47.884Z,2.97
2022-11-10T11:42:46.836Z,3.00
2022-11-10T11:45:42.913Z,3.57
2022-11-10T11:48:52.305Z,3.10
2022-11-10T11:51:47.331Z,3.63
2022-11-10T11:54:46.539Z,3.37
2022-11-10T11:57:42.278Z,3.07
2022-11-10T12:00:35.555Z,3.27
2022-11-10T12:03:38.640Z,3.10
2022-11-10T12:06:42.748Z,3.63
2022-11-10T12:09:38.480Z,3.67
2022-11-10T12:12:47.485Z,2.27
2022-11-10T12:15:41.744Z,3.20
2022-11-10T12:18:34.495Z,2.70
2022-11-10T12:21:26.445Z,3.03
2022-11-10T12:24:26.320Z,2.37
2022-11-10T12:27:17.590Z,2.50
2022-11-10T12:30:10.106Z,2.57
2022-11-10T12:33:03.538Z,2.40
2022-11-10T12:35:52.548Z,3.30
2022-11-10T12:38:47.580Z,2.37
2022-11-10T12:41:40.479Z,2.87
2022-11-10T12:44:33.181Z,3.37
2022-11-10T12:47:24.050Z,2.43
2022-11-10T12:50:24.556Z,3.17
2022-11-10T12:53:17.924Z,3.17
2022-11-10T12:56:09.697Z,2.40
2022-11-10T12:59:15.132Z,2.33
2022-11-10T13:02:06.266Z,3.03
2022-11-10T13:05:24.239Z,2.37
2022-11-10T13:08:25.499Z,2.40
2022-11-10T13:11:27.647Z,2.27
2022-11-10T13:14:29.956Z,1.87
2022-11-10T13:17:53.236Z,2.20
2022-11-10T13:20:53.459Z,2.27
2022-11-10T13:24:22.026Z,2.27
2022-11-10T13:27:12.745Z,2.43
2022-11-10T13:29:59.925Z,2.27
2022-11-10T13:32:46.540Z,2.37
2022-11-10T13:35:55.568Z,1.80
2022-11-10T13:38:44.281Z,2.73
2022-11-10T13:41:37.853Z,1.97
2022-11-10T13:44:27.216Z,2.57
2022-11-10T13:47:40.832Z,1.97
2022-11-10T13:50:41.979Z,2.60
2022-11-10T13:53:37.300Z,1.90
2022-11-10T13:56:41.150Z,1.93
2022-11-10T13:59:31.212Z,1.80
2022-11-10T14:02:50.076Z,2.00
2022-11-10T14:06:06.015Z,1.67
2022-11-10T14:08:57.599Z,2.27
2022-11-10T14:11:50.256Z,2.20
2022-11-10T14:14:48.524Z,2.67
2022-11-10T14:17:37.418Z,2.23
2022-11-10T14:20:28.519Z,1.97
2022-11-10T14:23:22.660Z,2.60
2022-11-10T14:26:20.303Z,2.10
2022-11-10T14:29:22.993Z,2.10
2022-11-10T14:32:17.669Z,2.53
2022-11-10T14:35:04.612Z,2.60
2022-11-10T14:37:51.372Z,2.33
2022-11-10T14:40:42.736Z,1.97
2022-11-10T14:43:32.182Z,2.13
2022-11-10T14:46:25.426Z,2.23
2022-11-10T14:49:12.414Z,2.45
2022-11-10T14:52:00.522Z,2.60
2022-11-10T14:54:47.763Z,1.93
2022-11-10T14:57:34.416Z,2.23
2022-11-10T15:00:26.228Z,2.20
2022-11-10T15:03:18.954Z,2.27
2022-11-10T15:06:09.354Z,2.27
2022-11-10T15:08:56.037Z,2.33
2022-11-10T15:11:49.966Z,1.93
2022-11-10T15:14:42.520Z,2.10
2022-11-10T15:17:47.865Z,2.40
2022-11-10T15:20:38.193Z,3.27
2022-11-10T15:23:33.606Z,3.17
2022-11-10T15:26:23.225Z,3.47
2022-11-10T15:29:22.129Z,2.70
2022-11-10T15:32:16.223Z,2.13
2022-11-10T15:35:25.063Z,2.70
2022-11-10T15:38:31.341Z,2.03
2022-11-10T15:41:27.495Z,1.90
2022-11-10T15:44:19.960Z,1.83
2022-11-10T15:47:07.634Z,2.30
2022-11-10T15:49:54.238Z,2.97
2022-11-10T15:52:42.412Z,2.60
2022-11-10T15:55:30.870Z,2.00
2022-11-10T15:58:20.179Z,2.03
2022-11-10T16:01:07.351Z,1.93
2022-11-10T16:03:53.929Z,1.67
2022-11-10T16:06:41.329Z,2.07
2022-11-10T16:09:29.152Z,2.93
2022-11-10T16:12:20.287Z,4.55
2022-11-10T16:15:12.790Z,5.93
2022-11-10T16:17:59.721Z,5.83
2022-11-10T16:20:47.486Z,5.57
2022-11-10T16:23:34.168Z,5.83
2022-11-10T16:26:24.826Z,6.47
2022-11-10T16:29:13.758Z,5.00
2022-11-10T16:32:00.656Z,3.67
2022-11-10T16:34:47.335Z,2.27
2022-11-10T16:37:35.062Z,3.23
2022-11-10T16:40:23.524Z,2.50
2022-11-10T16:43:16.546Z,2.00
2022-11-10T16:46:05.825Z,2.43
2022-11-10T16:48:55.504Z,2.90
2022-11-10T16:51:48.520Z,1.80
2022-11-10T16:54:36.178Z,2.50
2022-11-10T16:57:22.554Z,2.70
2022-11-10T17:00:12.189Z,2.77
2022-11-10T17:03:03.478Z,1.90
2022-11-10T17:05:50.392Z,2.13
2022-11-10T17:08:37.426Z,2.20
2022-11-10T17:11:24.415Z,2.10
2022-11-10T17:14:12.836Z,1.90
2022-11-10T17:17:01.154Z,2.30
2022-11-10T17:19:50.040Z,2.23
2022-11-10T17:22:37.361Z,2.30
2022-11-10T17:25:27.996Z,2.10
2022-11-10T17:28:16.283Z,2.63
2022-11-10T17:31:03.898Z,2.50
2022-11-10T17:33:51.741Z,2.83
2022-11-10T17:36:38.727Z,2.00
2022-11-10T17:39:25.410Z,2.10
2022-11-10T17:42:13.725Z,2.50
2022-11-10T17:45:00.418Z,1.77
2022-11-10T17:47:47.791Z,1.93
2022-11-10T17:50:37.177Z,2.10
2022-11-10T17:53:26.663Z,1.73
2022-11-10T17:56:14.061Z,1.90
2022-11-10T17:59:00.667Z,2.80
2022-11-10T18:01:47.277Z,2.23
2022-11-10T18:04:34.258Z,2.30
2022-11-10T18:07:22.052Z,2.70
2022-11-10T18:10:12.651Z,2.30
2022-11-10T18:12:59.451Z,2.10
2022-11-10T18:15:47.511Z,2.40
2022-11-10T18:18:34.155Z,1.83
2022-11-10T18:21:20.929Z,1.57
2022-11-10T18:24:09.480Z,2.13
2022-11-10T18:26:56.300Z,2.03
2022-11-10T18:29:43.274Z,2.23
2022-11-10T18:32:30.171Z,2.37
2022-11-10T18:35:17.741Z,2.00
2022-11-10T18:38:04.371Z,2.47
2022-11-10T18:40:53.450Z,2.30
2022-11-10T18:43:40.177Z,1.80
2022-11-10T18:46:26.875Z,2.53
2022-11-10T18:49:14.563Z,2.20
2022-11-10T18:52:01.698Z,1.80
2022-11-10T18:54:48.463Z,1.90
2022-11-10T18:57:36.690Z,2.17
2022-11-10T19:00:23.717Z,2.07
2022-11-10T19:03:10.302Z,2.00
2022-11-10T19:05:58.940Z,1.60
2022-11-10T19:08:45.909Z,1.87
2022-11-10T19:11:33.924Z,1.70
2022-11-10T19:14:22.011Z,2.03
2022-11-10T19:17:08.927Z,2.17
2022-11-10T19:19:56.827Z,2.00
2022-11-10T19:22:44.274Z,1.70
2022-11-10T19:25:31.622Z,2.27
2022-11-10T19:28:18.493Z,2.07
2022-11-10T19:31:08.751Z,2.60
2022-11-10T19:33:56.717Z,3.10
2022-11-10T19:36:43.346Z,3.10
2022-11-10T19:39:30.169Z,3.33
2022-11-10T19:42:17.241Z,2.43
2022-11-10T19:45:03.899Z,2.43
2022-11-10T19:47:52.001Z,2.37
2022-11-10T19:50:39.094Z,2.73
2022-11-10T19:53:25.980Z,2.13
2022-11-10T19:56:15.858Z,2.47
2022-11-10T19:59:02.903Z,2.40
2022-11-10T20:01:49.794Z,2.33
2022-11-10T20:04:58.785Z,2.67
2022-11-10T20:08:06.311Z,2.43
2022-11-10T20:10:59.405Z,2.03
2022-11-10T20:13:46.001Z,2.57
2022-11-10T20:16:32.673Z,2.40
2022-11-10T20:19:19.288Z,2.83
2022-11-10T20:22:07.739Z,2.73
2022-11-10T20:24:54.571Z,2.50
2022-11-10T20:27:41.602Z,3.17
2022-11-10T20:30:28.506Z,2.67
2022-11-10T20:33:15.361Z,2.70
2022-11-10T20:36:12.843Z,2.50
2022-11-10T20:39:02.614Z,2.00
2022-11-10T20:41:50.691Z,2.43
2022-11-10T20:44:37.610Z,2.33
2022-11-10T20:47:24.384Z,2.37
2022-11-10T20:50:14.914Z,2.10
2022-11-10T20:53:05.754Z,2.07
2022-11-10T20:55:59.575Z,2.33
2022-11-10T20:58:46.237Z,1.87
2022-11-10T21:01:33.682Z,1.93
2022-11-10T21:04:20.720Z,2.20
2022-11-10T21:07:07.296Z,2.10
2022-11-10T21:09:54.013Z,1.90
2022-11-10T21:12:51.023Z,1.63
2022-11-10T21:15:39.601Z,1.70
2022-11-10T21:18:29.312Z,1.80
2022-11-10T21:21:22.714Z,1.43
2022-11-10T21:24:10.301Z,1.57
2022-11-10T21:26:57.491Z,1.90
2022-11-10T21:29:45.388Z,1.60
2022-11-10T21:32:32.342Z,1.97
2022-11-10T21:35:19.384Z,1.53
2022-11-10T21:38:06.325Z,1.53
2022-11-10T21:40:53.099Z,1.70
2022-11-10T21:43:39.930Z,1.87
2022-11-10T21:46:27.753Z,1.63
2022-11-10T21:49:14.254Z,2.23
2022-11-10T21:52:00.986Z,1.83
2022-11-10T21:54:47.470Z,2.93
2022-11-10T21:57:34.237Z,1.90
2022-11-10T22:00:21.117Z,2.00
2022-11-10T22:03:08.923Z,2.20
2022-11-10T22:05:55.337Z,2.60
2022-11-10T22:08:44.077Z,2.30
2022-11-10T22:11:48.476Z,2.33
2022-11-10T22:14:51.980Z,2.30
2022-11-10T22:17:58.599Z,2.00
2022-11-10T22:20:46.908Z,2.40
2022-11-10T22:23:51.054Z,1.93
2022-11-10T22:26:37.950Z,2.30
2022-11-10T22:29:30.119Z,2.10
2022-11-10T22:32:17.926Z,2.27
2022-11-10T22:35:04.405Z,2.13
2022-11-10T22:37:52.745Z,1.93
2022-11-10T22:40:57.038Z,2.47
2022-11-10T22:44:01.311Z,2.50
2022-11-10T22:46:51.059Z,2.13
2022-11-10T22:49:37.783Z,1.80
2022-11-10T22:52:24.672Z,2.33
2022-11-10T22:55:12.577Z,1.90
2022-11-10T22:57:59.066Z,2.23
2022-11-10T23:00:46.886Z,2.53
2022-11-10T23:03:33.974Z,2.13
2022-11-10T23:06:21.164Z,2.00
2022-11-10T23:09:08.382Z,2.17
2022-11-10T23:11:56.627Z,2.47
2022-11-10T23:14:43.458Z,2.13
2022-11-10T23:17:30.083Z,2.20
2022-11-10T23:20:17.198Z,2.20
2022-11-10T23:23:04.009Z,2.67
2022-11-10T23:26:00.080Z,2.00
2022-11-10T23:28:48.667Z,2.30
2022-11-10T23:31:35.131Z,2.03
2022-11-10T23:34:21.907Z,2.03
2022-11-10T23:37:08.625Z,2.93
2022-11-10T23:39:54.915Z,2.40
2022-11-10T23:42:41.596Z,2.27
2022-11-10T23:45:46.216Z,2.30
2022-11-10T23:48:36.514Z,2.10
2022-11-10T23:51:24.757Z,3.07
2022-11-10T23:54:11.490Z,2.30
2022-11-10T23:56:58.182Z,2.70
2022-11-10T23:59:44.939Z,2.70
